createdAt,value
2022-11-27T00:00:04.973Z,-0.05
2022-11-27T00:02:42.662Z,0.14
2022-11-27T00:05:13.089Z,0.12
2022-11-27T00:07:43.381Z,0.33
2022-11-27T00:10:14.881Z,0.48
2022-11-27T00:12:47.563Z,0.21
2022-11-27T00:15:18.758Z,0.09
2022-11-27T00:17:48.743Z,0.03
2022-11-27T00:20:18.989Z,0.06
2022-11-27T00:22:48.974Z,0.10
2022-11-27T00:25:19.228Z,0.13
2022-11-27T00:27:51.835Z,0.00
2022-11-27T00:30:22.309Z,0.13
2022-11-27T00:32:52.287Z,0.18
2022-11-27T00:35:22.333Z,0.15
2022-11-27T00:37:52.379Z,0.18
2022-11-27T00:40:22.641Z,0.30
2022-11-27T00:42:55.296Z,0.14
2022-11-27T00:45:25.708Z,0.06
2022-11-27T00:47:56.128Z,0.03
2022-11-27T00:50:26.219Z,-0.11
2022-11-27T00:52:56.259Z,-0.01
2022-11-27T00:55:26.268Z,-0.14
2022-11-27T00:57:58.785Z,-0.16
2022-11-27T01:00:29.286Z,-0.12
2022-11-27T01:02:59.427Z,-0.39
2022-11-27T01:05:29.500Z,-0.37
2022-11-27T01:07:59.526Z,-0.38
2022-11-27T01:10:29.661Z,-0.19
2022-11-27T01:13:02.248Z,-0.12
2022-11-27T01:15:32.484Z,-0.37
2022-11-27T01:18:02.539Z,-0.59
2022-11-27T01:20:32.631Z,-0.70
2022-11-27T01:23:02.680Z,-0.71
2022-11-27T01:25:32.675Z,-0.69
2022-11-27T01:28:05.633Z,-0.54
2022-11-27T01:30:35.637Z,-0.71
2022-11-27T01:33:05.620Z,-0.76
2022-11-27T01:35:36.261Z,-0.85
2022-11-27T01:38:06.665Z,-1.02
2022-11-27T01:40:36.712Z,-1.15
2022-11-27T01:43:17.088Z,-1.19
2022-11-27T01:45:48.077Z,-1.09
2022-11-27T01:48:18.127Z,-1.09
2022-11-27T01:50:48.133Z,-1.13
2022-11-27T01:53:22.178Z,-1.19
2022-11-27T01:55:58.758Z,-1.17
2022-11-27T01:58:33.904Z,-1.13
2022-11-27T02:01:04.542Z,-1.22
2022-11-27T02:03:36.380Z,-1.18
2022-11-27T02:06:06.892Z,-1.37
2022-11-27T02:08:36.925Z,-1.42
2022-11-27T02:11:16.792Z,-1.23
2022-11-27T02:13:59.411Z,-1.41
2022-11-27T02:16:40.072Z,-1.69
2022-11-27T02:19:28.252Z,-1.88
2022-11-27T02:22:18.573Z,-1.84
2022-11-27T02:24:59.467Z,-1.84
2022-11-27T02:28:00.863Z,-1.81
2022-11-27T02:30:40.771Z,-1.61
2022-11-27T02:33:17.304Z,-1.44
2022-11-27T02:35:57.548Z,-1.63
2022-11-27T02:38:35.387Z,-1.63
2022-11-27T02:41:13.594Z,-1.70
2022-11-27T02:43:48.332Z,-1.90
2022-11-27T02:46:23.502Z,-1.83
2022-11-27T02:48:59.827Z,-1.84
2022-11-27T02:51:39.163Z,-1.92
2022-11-27T02:54:16.613Z,-1.93
2022-11-27T02:56:49.787Z,-1.79
2022-11-27T02:59:22.605Z,-1.74
2022-11-27T03:02:03.027Z,-1.61
2022-11-27T03:04:40.664Z,-1.55
2022-11-27T03:07:17.448Z,-1.58
2022-11-27T03:09:52.717Z,-1.71
2022-11-27T03:12:23.056Z,-1.76
2022-11-27T03:14:53.160Z,-1.86
2022-11-27T03:17:51.591Z,-1.82
2022-11-27T03:20:28.393Z,-1.88
2022-11-27T03:22:59.357Z,-1.95
2022-11-27T03:25:29.423Z,-2.05
2022-11-27T03:28:05.586Z,-1.97
2022-11-27T03:30:35.728Z,-1.80
2022-11-27T03:33:08.327Z,-2.04
2022-11-27T03:35:38.467Z,-1.86
2022-11-27T03:38:08.977Z,-1.83
2022-11-27T03:40:51.700Z,-1.88
2022-11-27T03:43:28.424Z,-1.65
2022-11-27T03:46:04.029Z,-1.61
2022-11-27T03:48:45.245Z,-1.47
2022-11-27T03:51:23.933Z,-1.23
2022-11-27T03:54:06.725Z,-1.43
2022-11-27T03:56:44.501Z,-1.43
2022-11-27T03:59:22.926Z,-1.43
2022-11-27T04:01:53.103Z,-1.39
2022-11-27T04:04:25.753Z,-1.26
2022-11-27T04:06:55.762Z,-1.18
2022-11-27T04:09:26.074Z,-1.16
2022-11-27T04:11:56.124Z,-1.32
2022-11-27T04:14:26.137Z,-1.47
2022-11-27T04:16:56.133Z,-1.43
2022-11-27T04:19:28.737Z,-1.33
2022-11-27T04:21:58.918Z,-1.31
2022-11-27T04:24:28.921Z,-1.27
2022-11-27T04:26:58.927Z,-1.32
2022-11-27T04:29:29.009Z,-1.42
2022-11-27T04:31:59.060Z,-1.45
2022-11-27T04:34:31.791Z,-1.51
2022-11-27T04:37:02.113Z,-1.27
2022-11-27T04:39:32.179Z,-1.16
2022-11-27T04:42:02.211Z,-1.33
2022-11-27T04:44:32.187Z,-1.36
2022-11-27T04:47:02.816Z,-1.43
2022-11-27T04:49:35.601Z,-1.41
2022-11-27T04:52:06.272Z,-1.60
2022-11-27T04:54:36.388Z,-1.57
2022-11-27T04:57:06.566Z,-1.53
2022-11-27T04:59:36.628Z,-1.47
2022-11-27T05:02:06.824Z,-1.63
2022-11-27T05:04:39.807Z,-1.74
2022-11-27T05:07:10.185Z,-1.87
2022-11-27T05:09:40.363Z,-1.70
2022-11-27T05:12:10.653Z,-1.77
2022-11-27T05:14:40.830Z,-1.84
2022-11-27T05:17:12.750Z,-1.81
2022-11-27T05:19:45.636Z,-1.83
2022-11-27T05:22:15.648Z,-1.71
2022-11-27T05:24:45.753Z,-1.76
2022-11-27T05:27:15.950Z,-1.87
2022-11-27T05:29:46.080Z,-1.85
2022-11-27T05:32:16.080Z,-1.90
2022-11-27T05:34:49.656Z,-1.87
2022-11-27T05:37:20.250Z,-2.13
2022-11-27T05:39:50.284Z,-2.21
2022-11-27T05:42:20.303Z,-2.18
2022-11-27T05:44:55.244Z,-2.34
2022-11-27T05:47:28.092Z,-2.42
2022-11-27T05:50:00.790Z,-2.54
2022-11-27T05:52:30.830Z,-2.55
2022-11-27T05:55:00.873Z,-2.52
2022-11-27T05:57:31.047Z,-2.39
2022-11-27T06:00:01.457Z,-2.28
2022-11-27T06:02:32.882Z,-2.49
2022-11-27T06:05:05.821Z,-2.45
2022-11-27T06:07:35.935Z,-2.57
2022-11-27T06:10:06.576Z,-2.71
2022-11-27T06:12:36.610Z,-2.71
2022-11-27T06:15:07.755Z,-2.79
2022-11-27T06:17:37.755Z,-3.01
2022-11-27T06:20:12.189Z,-2.83
2022-11-27T06:22:42.440Z,-2.93
2022-11-27T06:25:13.050Z,-2.95
2022-11-27T06:27:43.121Z,-3.16
2022-11-27T06:30:15.174Z,-2.93
2022-11-27T06:32:45.209Z,-3.08
2022-11-27T06:35:18.016Z,-3.18
2022-11-27T06:37:48.018Z,-3.08
2022-11-27T06:40:18.295Z,-3.20
2022-11-27T06:42:48.329Z,-3.20
2022-11-27T06:45:18.635Z,-3.33
2022-11-27T06:47:48.648Z,-3.35
2022-11-27T06:50:21.729Z,-3.40
2022-11-27T06:52:51.756Z,-3.47
2022-11-27T06:55:21.765Z,-3.54
2022-11-27T06:57:53.768Z,-3.47
2022-11-27T07:00:24.185Z,-3.28
2022-11-27T07:02:57.624Z,-3.35
2022-11-27T07:05:30.380Z,-3.24
2022-11-27T07:08:02.175Z,-2.95
2022-11-27T07:10:32.230Z,-2.49
2022-11-27T07:13:02.270Z,-2.44
2022-11-27T07:15:32.621Z,-2.29
2022-11-27T07:18:02.624Z,-2.16
2022-11-27T07:20:35.847Z,-2.01
2022-11-27T07:23:05.980Z,-1.91
2022-11-27T07:25:36.028Z,-1.84
2022-11-27T07:28:06.021Z,-1.82
2022-11-27T07:30:36.483Z,-1.75
2022-11-27T07:33:07.117Z,-1.62
2022-11-27T07:35:39.724Z,-1.48
2022-11-27T07:38:09.772Z,-1.33
2022-11-27T07:40:41.323Z,-1.22
2022-11-27T07:43:11.380Z,-1.21
2022-11-27T07:45:41.449Z,-1.16
2022-11-27T07:48:11.554Z,-1.06
2022-11-27T07:50:45.186Z,-1.06
2022-11-27T07:53:15.326Z,-0.98
2022-11-27T07:55:45.799Z,-0.93
2022-11-27T07:58:15.899Z,-0.83
2022-11-27T08:00:45.967Z,-1.00
2022-11-27T08:03:16.702Z,-0.88
2022-11-27T08:05:49.325Z,-0.69
2022-11-27T08:08:19.377Z,-0.61
2022-11-27T08:10:49.372Z,-0.71
2022-11-27T08:13:19.419Z,-0.63
2022-11-27T08:15:49.528Z,-0.58
2022-11-27T08:18:19.770Z,-0.53
2022-11-27T08:20:52.364Z,-0.34
2022-11-27T08:23:22.362Z,-0.43
2022-11-27T08:25:52.437Z,-0.30
2022-11-27T08:28:22.517Z,-0.19
2022-11-27T08:31:00.137Z,-0.11
2022-11-27T08:33:30.398Z,-0.16
2022-11-27T08:36:03.393Z,-0.11
2022-11-27T08:38:33.603Z,-0.10
2022-11-27T08:41:06.779Z,0.06
2022-11-27T08:43:37.873Z,0.13
2022-11-27T08:46:09.927Z,0.31
2022-11-27T08:48:40.400Z,0.45
2022-11-27T08:51:16.284Z,0.39
2022-11-27T08:53:46.857Z,0.45
2022-11-27T08:56:20.307Z,0.76
2022-11-27T08:58:51.092Z,0.88
2022-11-27T09:01:24.793Z,1.13
2022-11-27T09:03:55.270Z,0.99
2022-11-27T09:06:31.256Z,0.91
2022-11-27T09:09:03.970Z,1.06
2022-11-27T09:11:35.813Z,1.04
2022-11-27T09:14:08.779Z,1.36
2022-11-27T09:16:39.234Z,1.39
2022-11-27T09:19:09.280Z,1.25
2022-11-27T09:21:42.010Z,1.51
2022-11-27T09:24:12.581Z,2.04
2022-11-27T09:26:44.768Z,2.03
2022-11-27T09:29:14.941Z,2.44
2022-11-27T09:31:45.215Z,2.68
2022-11-27T09:34:15.503Z,3.02
2022-11-27T09:36:48.713Z,3.07
2022-11-27T09:39:19.593Z,2.99
2022-11-27T09:41:54.115Z,3.15
2022-11-27T09:44:36.781Z,3.41
2022-11-27T09:47:17.830Z,3.28
2022-11-27T09:49:53.607Z,3.42
2022-11-27T09:52:37.661Z,3.42
2022-11-27T09:55:20.497Z,3.18
2022-11-27T09:58:04.740Z,3.00
2022-11-27T10:00:35.008Z,2.60
2022-11-27T10:03:05.304Z,2.45
2022-11-27T10:05:45.514Z,2.59
2022-11-27T10:08:38.067Z,2.78
2022-11-27T10:11:25.526Z,3.00
2022-11-27T10:14:13.590Z,2.99
2022-11-27T10:16:52.004Z,3.25
2022-11-27T10:19:39.623Z,3.52
2022-11-27T10:22:21.177Z,3.79
2022-11-27T10:25:10.092Z,3.68
2022-11-27T10:27:48.080Z,3.71
2022-11-27T10:30:22.291Z,3.46
2022-11-27T10:32:58.355Z,3.38
2022-11-27T10:35:31.781Z,2.96
2022-11-27T10:38:07.342Z,2.39
2022-11-27T10:40:46.740Z,2.10
2022-11-27T10:43:22.745Z,1.88
2022-11-27T10:45:56.979Z,1.43
2022-11-27T10:48:27.852Z,1.64
2022-11-27T10:50:59.092Z,1.74
2022-11-27T10:53:33.319Z,1.98
2022-11-27T10:56:39.436Z,2.35
2022-11-27T10:59:15.541Z,2.13
2022-11-27T11:01:50.079Z,2.21
2022-11-27T11:04:38.756Z,2.31
2022-11-27T11:07:28.688Z,2.22
2022-11-27T11:09:59.768Z,2.11
2022-11-27T11:12:33.219Z,2.24
2022-11-27T11:15:04.919Z,2.19
2022-11-27T11:17:37.892Z,2.42
2022-11-27T11:20:21.832Z,2.61
2022-11-27T11:22:52.561Z,2.56
2022-11-27T11:25:24.710Z,2.69
2022-11-27T11:27:58.231Z,2.78
2022-11-27T11:30:34.758Z,2.94
2022-11-27T11:33:07.530Z,3.06
2022-11-27T11:35:39.961Z,3.19
2022-11-27T11:38:21.347Z,3.27
2022-11-27T11:41:03.475Z,3.29
2022-11-27T11:43:39.353Z,3.39
2022-11-27T11:46:22.870Z,3.51
2022-11-27T11:49:03.738Z,3.29
2022-11-27T11:52:07.587Z,3.56
2022-11-27T11:55:02.816Z,3.36
2022-11-27T11:57:59.248Z,3.17
2022-11-27T12:01:04.685Z,2.97
2022-11-27T12:03:51.204Z,3.29
2022-11-27T12:06:51.418Z,3.69
2022-11-27T12:09:55.178Z,3.95
2022-11-27T12:12:48.918Z,4.42
2022-11-27T12:15:32.950Z,5.02
2022-11-27T12:18:07.775Z,5.40
2022-11-27T12:20:57.849Z,5.23
2022-11-27T12:23:59.519Z,5.10
2022-11-27T12:26:48.814Z,5.28
2022-11-27T12:29:42.423Z,5.52
2022-11-27T12:32:37.661Z,5.44
2022-11-27T12:35:33.310Z,5.21
2022-11-27T12:38:38.796Z,5.22
2022-11-27T12:41:49.754Z,5.08
2022-11-27T12:44:31.052Z,5.27
2022-11-27T12:47:08.512Z,5.48
2022-11-27T12:49:47.740Z,5.62
2022-11-27T12:52:24.021Z,5.75
2022-11-27T12:55:04.795Z,5.95
2022-11-27T12:57:43.590Z,6.06
2022-11-27T13:00:20.677Z,6.15
2022-11-27T13:03:05.463Z,6.44
2022-11-27T13:05:45.768Z,6.58
2022-11-27T13:08:23.571Z,6.68
2022-11-27T13:10:59.393Z,6.68
2022-11-27T13:13:37.074Z,6.78
2022-11-27T13:16:15.565Z,6.82
2022-11-27T13:18:53.922Z,6.87
2022-11-27T13:21:31.927Z,6.86
2022-11-27T13:24:05.290Z,6.91
2022-11-27T13:26:43.688Z,6.97
2022-11-27T13:29:24.814Z,7.05
2022-11-27T13:32:01.732Z,7.06
2022-11-27T13:34:37.394Z,7.16
2022-11-27T13:37:12.396Z,7.22
2022-11-27T13:39:45.386Z,7.28
2022-11-27T13:42:24.276Z,7.40
2022-11-27T13:45:01.148Z,7.50
2022-11-27T13:47:38.806Z,7.56
2022-11-27T13:50:14.324Z,7.64
2022-11-27T13:53:00.182Z,7.72
2022-11-27T13:55:33.257Z,7.65
2022-11-27T13:58:05.272Z,7.42
2022-11-27T14:00:39.917Z,7.35
2022-11-27T14:03:23.534Z,7.53
2022-11-27T14:05:53.836Z,7.69
2022-11-27T14:08:30.059Z,7.82
2022-11-27T14:11:06.195Z,7.66
2022-11-27T14:13:43.105Z,7.84
2022-11-27T14:16:30.534Z,7.95
2022-11-27T14:19:03.872Z,7.67
2022-11-27T14:21:44.211Z,7.85
2022-11-27T14:24:41.473Z,7.92
2022-11-27T14:27:21.432Z,7.91
2022-11-27T14:29:52.860Z,7.85
2022-11-27T14:32:24.361Z,7.79
2022-11-27T14:34:54.535Z,7.84
2022-11-27T14:37:27.953Z,7.91
2022-11-27T14:40:00.576Z,7.83
2022-11-27T14:42:36.457Z,7.79
2022-11-27T14:45:15.464Z,7.67
2022-11-27T14:47:52.349Z,7.60
2022-11-27T14:50:26.245Z,7.54
2022-11-27T14:53:00.117Z,7.50
2022-11-27T14:55:34.837Z,7.44
2022-11-27T14:58:05.696Z,7.48
2022-11-27T15:00:35.955Z,7.51
2022-11-27T15:03:12.727Z,7.44
2022-11-27T15:05:42.969Z,7.42
2022-11-27T15:08:14.034Z,7.26
2022-11-27T15:10:46.805Z,7.14
2022-11-27T15:13:26.740Z,7.16
2022-11-27T15:16:03.690Z,7.05
2022-11-27T15:18:38.856Z,6.96
2022-11-27T15:21:14.733Z,6.85
2022-11-27T15:23:50.033Z,6.82
2022-11-27T15:26:36.527Z,6.85
2022-11-27T15:29:07.546Z,6.85
2022-11-27T15:31:40.125Z,6.64
2022-11-27T15:34:27.232Z,6.41
2022-11-27T15:37:01.718Z,6.40
2022-11-27T15:39:40.914Z,6.38
2022-11-27T15:42:14.764Z,6.22
2022-11-27T15:44:44.998Z,6.24
2022-11-27T15:47:26.934Z,6.28
2022-11-27T15:49:57.690Z,6.23
2022-11-27T15:52:28.366Z,6.07
2022-11-27T15:54:59.456Z,6.16
2022-11-27T15:57:32.047Z,6.15
2022-11-27T16:00:04.118Z,6.06
2022-11-27T16:02:44.622Z,6.01
2022-11-27T16:05:15.297Z,6.11
2022-11-27T16:07:45.672Z,6.24
2022-11-27T16:10:16.369Z,6.20
2022-11-27T16:12:49.039Z,6.06
2022-11-27T16:15:22.634Z,6.06
2022-11-27T16:17:54.111Z,6.10
2022-11-27T16:20:24.405Z,6.23
2022-11-27T16:22:55.182Z,6.36
2022-11-27T16:25:25.494Z,6.43
2022-11-27T16:28:02.430Z,6.34
2022-11-27T16:30:33.332Z,6.30
2022-11-27T16:33:03.369Z,6.18
2022-11-27T16:35:33.912Z,6.16
2022-11-27T16:38:04.041Z,6.15
2022-11-27T16:40:34.925Z,6.03
2022-11-27T16:43:08.342Z,6.00
2022-11-27T16:45:40.649Z,6.09
2022-11-27T16:48:11.756Z,6.15
2022-11-27T16:50:41.819Z,6.17
2022-11-27T16:53:12.832Z,6.23
2022-11-27T16:55:43.648Z,6.22
2022-11-27T16:58:16.423Z,6.18
2022-11-27T17:00:46.488Z,5.99
2022-11-27T17:03:16.725Z,5.97
2022-11-27T17:05:51.288Z,5.88
2022-11-27T17:08:21.621Z,5.74
2022-11-27T17:10:51.694Z,5.62
2022-11-27T17:13:25.546Z,5.67
2022-11-27T17:15:56.472Z,5.54
2022-11-27T17:18:26.665Z,5.47
2022-11-27T17:21:02.357Z,5.63
2022-11-27T17:23:33.141Z,5.63
2022-11-27T17:26:09.824Z,5.55
2022-11-27T17:28:42.965Z,5.40
2022-11-27T17:31:14.509Z,5.35
2022-11-27T17:33:44.725Z,5.26
2022-11-27T17:36:15.661Z,5.04
2022-11-27T17:38:46.779Z,4.92
2022-11-27T17:41:18.345Z,4.75
2022-11-27T17:43:51.961Z,4.74
2022-11-27T17:46:26.263Z,4.69
2022-11-27T17:48:59.078Z,4.72
2022-11-27T17:51:30.008Z,4.76
2022-11-27T17:54:02.857Z,4.97
2022-11-27T17:56:36.534Z,5.04
2022-11-27T17:59:10.381Z,5.12
2022-11-27T18:01:41.584Z,5.20
2022-11-27T18:04:11.818Z,5.21
2022-11-27T18:06:42.481Z,5.10
2022-11-27T18:09:12.888Z,4.96
2022-11-27T18:11:43.916Z,4.88
2022-11-27T18:14:17.824Z,4.93
2022-11-27T18:16:48.195Z,5.03
2022-11-27T18:19:18.397Z,5.18
2022-11-27T18:21:48.512Z,5.27
2022-11-27T18:24:23.544Z,5.24
2022-11-27T18:27:10.349Z,5.09
2022-11-27T18:29:45.548Z,5.27
2022-11-27T18:32:18.676Z,5.11
2022-11-27T18:34:49.217Z,4.92
2022-11-27T18:37:19.280Z,4.78
2022-11-27T18:39:50.615Z,4.77
2022-11-27T18:42:20.703Z,4.96
2022-11-27T18:44:53.316Z,4.88
2022-11-27T18:47:23.739Z,4.77
2022-11-27T18:49:55.746Z,4.70
2022-11-27T18:52:25.771Z,4.76
2022-11-27T18:54:56.225Z,4.67
2022-11-27T18:57:26.306Z,4.72
2022-11-27T19:00:00.929Z,4.58
2022-11-27T19:02:32.331Z,4.54
2022-11-27T19:05:03.069Z,4.55
2022-11-27T19:07:33.164Z,4.56
2022-11-27T19:10:03.293Z,4.56
2022-11-27T19:12:33.969Z,4.61
2022-11-27T19:15:08.882Z,4.56
2022-11-27T19:17:39.152Z,4.50
2022-11-27T19:20:11.671Z,4.45
2022-11-27T19:22:41.750Z,4.41
2022-11-27T19:25:12.737Z,4.47
2022-11-27T19:27:42.761Z,4.52
2022-11-27T19:30:16.884Z,4.62
2022-11-27T19:32:48.146Z,4.63
2022-11-27T19:35:22.176Z,4.46
2022-11-27T19:37:52.676Z,4.41
2022-11-27T19:40:24.505Z,4.50
2022-11-27T19:42:59.534Z,4.63
2022-11-27T19:45:33.848Z,4.62
2022-11-27T19:48:04.252Z,4.57
2022-11-27T19:50:35.449Z,4.55
2022-11-27T19:53:07.285Z,4.59
2022-11-27T19:55:37.635Z,4.57
2022-11-27T19:58:07.756Z,4.53
2022-11-27T20:00:40.512Z,4.48
2022-11-27T20:03:10.621Z,4.56
2022-11-27T20:05:40.778Z,4.51
2022-11-27T20:08:11.299Z,4.44
2022-11-27T20:10:42.152Z,4.43
2022-11-27T20:13:12.567Z,4.53
2022-11-27T20:15:45.136Z,4.49
2022-11-27T20:18:17.408Z,4.39
2022-11-27T20:20:47.789Z,4.30
2022-11-27T20:23:18.444Z,4.02
2022-11-27T20:25:50.582Z,4.07
2022-11-27T20:28:20.901Z,3.97
2022-11-27T20:30:59.875Z,4.09
2022-11-27T20:33:30.257Z,4.19
2022-11-27T20:36:02.298Z,4.16
2022-11-27T20:38:32.453Z,4.16
2022-11-27T20:41:02.685Z,4.25
2022-11-27T20:43:32.812Z,4.16
2022-11-27T20:46:05.797Z,4.32
2022-11-27T20:48:36.883Z,4.53
2022-11-27T20:51:13.768Z,4.63
2022-11-27T20:53:46.051Z,4.50
2022-11-27T20:56:20.580Z,4.55
2022-11-27T20:58:51.987Z,4.51
2022-11-27T21:01:27.201Z,4.46
2022-11-27T21:03:59.097Z,4.43
2022-11-27T21:06:31.748Z,4.41
2022-11-27T21:09:04.429Z,4.40
2022-11-27T21:11:35.742Z,4.64
2022-11-27T21:14:09.661Z,4.55
2022-11-27T21:16:46.940Z,4.47
2022-11-27T21:19:20.830Z,4.47
2022-11-27T21:21:54.196Z,4.43
2022-11-27T21:24:28.744Z,4.38
2022-11-27T21:26:59.412Z,4.33
2022-11-27T21:29:30.807Z,4.20
2022-11-27T21:32:04.030Z,4.20
2022-11-27T21:34:34.116Z,4.31
2022-11-27T21:37:04.256Z,4.10
2022-11-27T21:39:34.447Z,4.12
2022-11-27T21:42:06.739Z,4.17
2022-11-27T21:44:41.338Z,4.28
2022-11-27T21:47:14.325Z,4.31
2022-11-27T21:49:44.765Z,4.30
2022-11-27T21:52:16.257Z,4.36
2022-11-27T21:54:46.357Z,4.41
2022-11-27T21:57:18.718Z,4.29
2022-11-27T21:59:48.718Z,4.37
2022-11-27T22:02:21.616Z,4.40
2022-11-27T22:04:51.645Z,4.47
2022-11-27T22:07:21.683Z,4.42
2022-11-27T22:09:51.709Z,4.42
2022-11-27T22:12:21.762Z,4.45
2022-11-27T22:14:52.902Z,4.41
2022-11-27T22:17:25.873Z,4.39
2022-11-27T22:19:56.548Z,4.36
2022-11-27T22:22:26.952Z,4.36
2022-11-27T22:24:57.061Z,4.35
2022-11-27T22:27:27.133Z,4.32
2022-11-27T22:29:57.258Z,4.37
2022-11-27T22:32:29.932Z,4.35
2022-11-27T22:35:01.088Z,4.38
2022-11-27T22:37:31.186Z,4.36
2022-11-27T22:40:01.661Z,4.36
2022-11-27T22:42:31.732Z,4.36
2022-11-27T22:45:01.764Z,4.31
2022-11-27T22:47:34.701Z,4.32
2022-11-27T22:50:05.030Z,4.28
2022-11-27T22:52:35.343Z,4.29
2022-11-27T22:55:06.087Z,4.37
2022-11-27T22:57:36.947Z,4.43
2022-11-27T23:00:11.488Z,4.40
2022-11-27T23:02:44.151Z,4.38
2022-11-27T23:05:14.233Z,4.29
2022-11-27T23:07:44.599Z,4.17
2022-11-27T23:10:15.385Z,4.08
2022-11-27T23:12:45.652Z,4.06
2022-11-27T23:15:15.776Z,3.91
2022-11-27T23:17:48.430Z,3.80
2022-11-27T23:20:18.668Z,3.64
2022-11-27T23:22:48.699Z,3.58
2022-11-27T23:25:19.002Z,3.78
2022-11-27T23:27:49.100Z,3.81
2022-11-27T23:30:20.059Z,3.95
2022-11-27T23:32:52.770Z,4.02
2022-11-27T23:35:22.849Z,4.06
2022-11-27T23:37:53.155Z,4.00
2022-11-27T23:40:23.636Z,4.08
2022-11-27T23:42:54.004Z,4.14
2022-11-27T23:45:23.999Z,3.97
2022-11-27T23:47:56.644Z,3.73
2022-11-27T23:50:26.689Z,3.70
2022-11-27T23:52:57.386Z,3.93
2022-11-27T23:55:27.478Z,3.96
2022-11-27T23:57:57.612Z,3.61
